sensor_id;sensor_type;location;lat;lon;timestamp;P1;durP1;ratioP1;P2;durP2;ratioP2
19032;SDS011;9649;51.042;13.804;2023-04-24T00:05:00;5.25;;;3.58;;
19032;SDS011;9649;51.042;13.804;2023-04-24T00:10:04;5.63;;;3.45;;
19032;SDS011;9649;51.042;13.804;2023-04-24T00:15:10;5.82;;;3.95;;
19032;SDS011;9649;51.042;13.804;2023-04-24T00:20:13;4.95;;;3.40;;
19032;SDS011;9649;51.042;13.804;2023-04-24T00:25:16;4.70;;;3.67;;
19032;SDS011;9649;51.042;13.804;2023-04-24T00:30:20;7.25;;;3.60;;
19032;SDS011;9649;51.042;13.804;2023-04-24T00:35:22;4.82;;;3.50;;
19032;SDS011;9649;51.042;13.804;2023-04-24T00:40:26;7.25;;;3.60;;
19032;SDS011;9649;51.042;13.804;2023-04-24T00:45:30;5.72;;;3.60;;
19032;SDS011;9649;51.042;13.804;2023-04-24T00:50:35;5.80;;;3.55;;
19032;SDS011;9649;51.042;13.804;2023-04-24T00:55:40;6.10;;;3.72;;
19032;SDS011;9649;51.042;13.804;2023-04-24T01:00:50;5.35;;;3.75;;
19032;SDS011;9649;51.042;13.804;2023-04-24T01:05:57;5.72;;;3.65;;
19032;SDS011;9649;51.042;13.804;2023-04-24T01:11:00;5.15;;;3.55;;
19032;SDS011;9649;51.042;13.804;2023-04-24T01:16:06;4.80;;;3.42;;
19032;SDS011;9649;51.042;13.804;2023-04-24T01:21:09;10.45;;;4.13;;
19032;SDS011;9649;51.042;13.804;2023-04-24T01:26:17;4.95;;;3.38;;
19032;SDS011;9649;51.042;13.804;2023-04-24T01:31:21;7.70;;;4.07;;
19032;SDS011;9649;51.042;13.804;2023-04-24T01:36:23;7.03;;;3.70;;
19032;SDS011;9649;51.042;13.804;2023-04-24T01:41:29;6.43;;;3.70;;
19032;SDS011;9649;51.042;13.804;2023-04-24T01:46:32;5.35;;;4.00;;
19032;SDS011;9649;51.042;13.804;2023-04-24T01:51:37;7.03;;;3.92;;
19032;SDS011;9649;51.042;13.804;2023-04-24T01:56:41;5.15;;;3.55;;
19032;SDS011;9649;51.042;13.804;2023-04-24T02:01:47;6.65;;;3.83;;
19032;SDS011;9649;51.042;13.804;2023-04-24T02:06:49;8.20;;;3.92;;
19032;SDS011;9649;51.042;13.804;2023-04-24T02:11:54;7.18;;;3.90;;
19032;SDS011;9649;51.042;13.804;2023-04-24T02:16:57;6.28;;;4.00;;
19032;SDS011;9649;51.042;13.804;2023-04-24T02:22:00;6.50;;;4.05;;
19032;SDS011;9649;51.042;13.804;2023-04-24T02:27:04;6.53;;;3.90;;
19032;SDS011;9649;51.042;13.804;2023-04-24T02:32:07;6.82;;;4.40;;
19032;SDS011;9649;51.042;13.804;2023-04-24T02:37:13;5.93;;;4.22;;
19032;SDS011;9649;51.042;13.804;2023-04-24T02:42:17;6.75;;;4.35;;
19032;SDS011;9649;51.042;13.804;2023-04-24T02:47:19;6.20;;;4.18;;
19032;SDS011;9649;51.042;13.804;2023-04-24T02:52:23;6.43;;;4.10;;
19032;SDS011;9649;51.042;13.804;2023-04-24T02:57:27;6.93;;;4.30;;
19032;SDS011;9649;51.042;13.804;2023-04-24T03:02:29;6.85;;;4.40;;
19032;SDS011;9649;51.042;13.804;2023-04-24T03:07:32;6.35;;;4.25;;
19032;SDS011;9649;51.042;13.804;2023-04-24T03:12:36;7.82;;;4.47;;
19032;SDS011;9649;51.042;13.804;2023-04-24T03:17:39;5.38;;;3.90;;
19032;SDS011;9649;51.042;13.804;2023-04-24T03:22:42;7.47;;;4.25;;
19032;SDS011;9649;51.042;13.804;2023-04-24T03:27:46;7.68;;;4.30;;
19032;SDS011;9649;51.042;13.804;2023-04-24T03:32:49;6.93;;;4.45;;
19032;SDS011;9649;51.042;13.804;2023-04-24T03:37:52;7.18;;;4.60;;
19032;SDS011;9649;51.042;13.804;2023-04-24T03:42:56;10.07;;;4.50;;
19032;SDS011;9649;51.042;13.804;2023-04-24T03:47:59;6.93;;;4.68;;
19032;SDS011;9649;51.042;13.804;2023-04-24T03:53:02;9.15;;;5.57;;
19032;SDS011;9649;51.042;13.804;2023-04-24T03:58:06;7.65;;;5.05;;
19032;SDS011;9649;51.042;13.804;2023-04-24T04:03:08;6.75;;;4.82;;
19032;SDS011;9649;51.042;13.804;2023-04-24T04:08:11;8.88;;;4.63;;
19032;SDS011;9649;51.042;13.804;2023-04-24T04:13:15;9.20;;;5.03;;
19032;SDS011;9649;51.042;13.804;2023-04-24T04:18:18;7.25;;;4.68;;
19032;SDS011;9649;51.042;13.804;2023-04-24T04:23:21;6.40;;;4.53;;
19032;SDS011;9649;51.042;13.804;2023-04-24T04:28:25;9.00;;;5.13;;
19032;SDS011;9649;51.042;13.804;2023-04-24T04:33:28;7.35;;;4.88;;
19032;SDS011;9649;51.042;13.804;2023-04-24T04:38:32;6.95;;;3.67;;
19032;SDS011;9649;51.042;13.804;2023-04-24T04:43:38;5.50;;;3.20;;
19032;SDS011;9649;51.042;13.804;2023-04-24T04:48:44;8.23;;;2.72;;
19032;SDS011;9649;51.042;13.804;2023-04-24T04:53:47;7.88;;;3.67;;
19032;SDS011;9649;51.042;13.804;2023-04-24T04:58:51;6.75;;;3.40;;
19032;SDS011;9649;51.042;13.804;2023-04-24T05:03:54;9.02;;;3.80;;
19032;SDS011;9649;51.042;13.804;2023-04-24T05:08:59;5.32;;;3.53;;
19032;SDS011;9649;51.042;13.804;2023-04-24T05:14:06;4.70;;;2.92;;
19032;SDS011;9649;51.042;13.804;2023-04-24T05:19:09;4.97;;;3.10;;
19032;SDS011;9649;51.042;13.804;2023-04-24T05:24:12;4.25;;;2.45;;
19032;SDS011;9649;51.042;13.804;2023-04-24T05:29:28;4.47;;;2.30;;
19032;SDS011;9649;51.042;13.804;2023-04-24T05:34:33;3.55;;;1.70;;
19032;SDS011;9649;51.042;13.804;2023-04-24T05:39:36;2.40;;;1.50;;
19032;SDS011;9649;51.042;13.804;2023-04-24T05:44:43;3.60;;;1.50;;
19032;SDS011;9649;51.042;13.804;2023-04-24T05:49:45;4.18;;;1.38;;
19032;SDS011;9649;51.042;13.804;2023-04-24T05:54:48;6.07;;;1.58;;
19032;SDS011;9649;51.042;13.804;2023-04-24T05:59:52;4.55;;;1.60;;
19032;SDS011;9649;51.042;13.804;2023-04-24T06:04:56;2.67;;;1.40;;
19032;SDS011;9649;51.042;13.804;2023-04-24T06:10:00;3.55;;;1.25;;
19032;SDS011;9649;51.042;13.804;2023-04-24T06:15:05;1.67;;;1.30;;
19032;SDS011;9649;51.042;13.804;2023-04-24T06:20:09;4.57;;;1.80;;
19032;SDS011;9649;51.042;13.804;2023-04-24T06:25:18;6.70;;;1.65;;
19032;SDS011;9649;51.042;13.804;2023-04-24T06:30:28;13.70;;;1.50;;
19032;SDS011;9649;51.042;13.804;2023-04-24T06:35:40;4.85;;;1.55;;
19032;SDS011;9649;51.042;13.804;2023-04-24T06:40:46;1.48;;;0.90;;
19032;SDS011;9649;51.042;13.804;2023-04-24T06:45:56;3.13;;;0.90;;
19032;SDS011;9649;51.042;13.804;2023-04-24T06:51:07;1.42;;;0.55;;
19032;SDS011;9649;51.042;13.804;2023-04-24T06:56:10;1.17;;;0.85;;
19032;SDS011;9649;51.042;13.804;2023-04-24T07:01:14;1.75;;;0.80;;
19032;SDS011;9649;51.042;13.804;2023-04-24T07:06:17;5.70;;;1.00;;
19032;SDS011;9649;51.042;13.804;2023-04-24T07:11:22;2.92;;;1.02;;
19032;SDS011;9649;51.042;13.804;2023-04-24T07:16:27;1.92;;;0.80;;
19032;SDS011;9649;51.042;13.804;2023-04-24T07:21:31;1.60;;;0.70;;
19032;SDS011;9649;51.042;13.804;2023-04-24T07:26:34;2.53;;;0.70;;
19032;SDS011;9649;51.042;13.804;2023-04-24T07:31:38;2.35;;;0.57;;
19032;SDS011;9649;51.042;13.804;2023-04-24T07:36:42;3.13;;;1.13;;
19032;SDS011;9649;51.042;13.804;2023-04-24T07:41:45;1.60;;;0.65;;
19032;SDS011;9649;51.042;13.804;2023-04-24T07:46:48;1.10;;;0.60;;
19032;SDS011;9649;51.042;13.804;2023-04-24T07:51:51;1.30;;;0.65;;
19032;SDS011;9649;51.042;13.804;2023-04-24T07:56:54;1.05;;;0.68;;
19032;SDS011;9649;51.042;13.804;2023-04-24T08:01:58;8.10;;;1.20;;
19032;SDS011;9649;51.042;13.804;2023-04-24T08:07:03;4.70;;;1.17;;
19032;SDS011;9649;51.042;13.804;2023-04-24T08:12:12;3.75;;;0.70;;
19032;SDS011;9649;51.042;13.804;2023-04-24T08:17:17;2.70;;;0.68;;
19032;SDS011;9649;51.042;13.804;2023-04-24T08:22:21;2.00;;;0.70;;
19032;SDS011;9649;51.042;13.804;2023-04-24T08:27:27;3.90;;;0.70;;
19032;SDS011;9649;51.042;13.804;2023-04-24T08:32:33;3.75;;;1.10;;
19032;SDS011;9649;51.042;13.804;2023-04-24T08:37:41;0.75;;;0.50;;
19032;SDS011;9649;51.042;13.804;2023-04-24T08:42:44;1.00;;;0.60;;
19032;SDS011;9649;51.042;13.804;2023-04-24T08:47:48;4.88;;;0.70;;
19032;SDS011;9649;51.042;13.804;2023-04-24T08:52:53;0.90;;;0.57;;
19032;SDS011;9649;51.042;13.804;2023-04-24T08:57:59;3.60;;;0.70;;
19032;SDS011;9649;51.042;13.804;2023-04-24T09:03:05;3.45;;;0.70;;
19032;SDS011;9649;51.042;13.804;2023-04-24T09:08:08;2.30;;;0.60;;
19032;SDS011;9649;51.042;13.804;2023-04-24T09:13:12;4.78;;;0.60;;
19032;SDS011;9649;51.042;13.804;2023-04-24T09:18:18;1.98;;;0.60;;
19032;SDS011;9649;51.042;13.804;2023-04-24T09:23:22;1.02;;;0.68;;
19032;SDS011;9649;51.042;13.804;2023-04-24T09:28:29;1.65;;;0.55;;
19032;SDS011;9649;51.042;13.804;2023-04-24T09:33:35;1.75;;;0.80;;
19032;SDS011;9649;51.042;13.804;2023-04-24T09:38:39;3.17;;;0.63;;
19032;SDS011;9649;51.042;13.804;2023-04-24T09:43:42;1.17;;;0.65;;
19032;SDS011;9649;51.042;13.804;2023-04-24T09:48:46;2.25;;;0.75;;
19032;SDS011;9649;51.042;13.804;2023-04-24T09:53:51;0.65;;;0.43;;
19032;SDS011;9649;51.042;13.804;2023-04-24T09:58:56;1.05;;;0.50;;
19032;SDS011;9649;51.042;13.804;2023-04-24T10:04:16;2.50;;;0.60;;
19032;SDS011;9649;51.042;13.804;2023-04-24T10:09:22;5.85;;;0.70;;
19032;SDS011;9649;51.042;13.804;2023-04-24T10:14:28;7.78;;;0.57;;
19032;SDS011;9649;51.042;13.804;2023-04-24T10:19:34;0.75;;;0.60;;
19032;SDS011;9649;51.042;13.804;2023-04-24T10:24:40;1.67;;;0.50;;
19032;SDS011;9649;51.042;13.804;2023-04-24T10:29:46;1.00;;;0.50;;
19032;SDS011;9649;51.042;13.804;2023-04-24T10:34:53;0.77;;;0.50;;
19032;SDS011;9649;51.042;13.804;2023-04-24T10:39:58;1.70;;;0.40;;
19032;SDS011;9649;51.042;13.804;2023-04-24T10:45:04;1.35;;;0.40;;
19032;SDS011;9649;51.042;13.804;2023-04-24T10:50:10;1.17;;;0.73;;
19032;SDS011;9649;51.042;13.804;2023-04-24T10:55:15;4.40;;;0.60;;
19032;SDS011;9649;51.042;13.804;2023-04-24T11:00:21;1.00;;;0.55;;
19032;SDS011;9649;51.042;13.804;2023-04-24T11:10:59;2.05;;;0.80;;
19032;SDS011;9649;51.042;13.804;2023-04-24T11:16:14;3.28;;;0.90;;
19032;SDS011;9649;51.042;13.804;2023-04-24T11:21:25;4.10;;;0.93;;
19032;SDS011;9649;51.042;13.804;2023-04-24T11:26:33;2.03;;;0.77;;
19032;SDS011;9649;51.042;13.804;2023-04-24T11:31:44;2.08;;;0.60;;
19032;SDS011;9649;51.042;13.804;2023-04-24T11:36:53;1.00;;;0.60;;
19032;SDS011;9649;51.042;13.804;2023-04-24T11:42:01;0.73;;;0.73;;
19032;SDS011;9649;51.042;13.804;2023-04-24T11:47:08;1.98;;;0.57;;
19032;SDS011;9649;51.042;13.804;2023-04-24T11:52:16;1.65;;;0.70;;
19032;SDS011;9649;51.042;13.804;2023-04-24T11:57:21;1.95;;;0.50;;
19032;SDS011;9649;51.042;13.804;2023-04-24T12:02:29;1.40;;;0.60;;
19032;SDS011;9649;51.042;13.804;2023-04-24T12:07:39;0.85;;;0.47;;
19032;SDS011;9649;51.042;13.804;2023-04-24T12:12:44;1.30;;;0.68;;
19032;SDS011;9649;51.042;13.804;2023-04-24T12:17:52;2.47;;;0.70;;
19032;SDS011;9649;51.042;13.804;2023-04-24T12:22:59;1.60;;;0.70;;
19032;SDS011;9649;51.042;13.804;2023-04-24T12:28:11;1.08;;;0.75;;
19032;SDS011;9649;51.042;13.804;2023-04-24T12:33:17;0.90;;;0.50;;
19032;SDS011;9649;51.042;13.804;2023-04-24T12:38:22;2.38;;;0.60;;
19032;SDS011;9649;51.042;13.804;2023-04-24T12:43:26;1.27;;;0.65;;
19032;SDS011;9649;51.042;13.804;2023-04-24T12:48:29;2.22;;;0.90;;
19032;SDS011;9649;51.042;13.804;2023-04-24T12:53:34;1.45;;;0.60;;
19032;SDS011;9649;51.042;13.804;2023-04-24T12:58:37;3.90;;;0.70;;
19032;SDS011;9649;51.042;13.804;2023-04-24T13:03:40;1.85;;;0.57;;
19032;SDS011;9649;51.042;13.804;2023-04-24T13:08:45;2.78;;;0.70;;
19032;SDS011;9649;51.042;13.804;2023-04-24T13:13:48;4.40;;;1.00;;
19032;SDS011;9649;51.042;13.804;2023-04-24T13:18:55;1.55;;;0.70;;
19032;SDS011;9649;51.042;13.804;2023-04-24T13:23:59;4.10;;;0.70;;
19032;SDS011;9649;51.042;13.804;2023-04-24T13:29:01;2.60;;;0.70;;
19032;SDS011;9649;51.042;13.804;2023-04-24T13:34:04;1.42;;;0.70;;
19032;SDS011;9649;51.042;13.804;2023-04-24T13:39:09;3.40;;;0.70;;
19032;SDS011;9649;51.042;13.804;2023-04-24T13:44:12;1.33;;;0.70;;
19032;SDS011;9649;51.042;13.804;2023-04-24T13:49:15;2.00;;;0.80;;
19032;SDS011;9649;51.042;13.804;2023-04-24T13:54:19;0.90;;;0.60;;
19032;SDS011;9649;51.042;13.804;2023-04-24T13:59:24;2.92;;;0.80;;
19032;SDS011;9649;51.042;13.804;2023-04-24T14:04:27;3.95;;;0.70;;
19032;SDS011;9649;51.042;13.804;2023-04-24T14:09:31;1.00;;;0.85;;
19032;SDS011;9649;51.042;13.804;2023-04-24T14:14:34;2.65;;;0.70;;
19032;SDS011;9649;51.042;13.804;2023-04-24T14:19:36;3.25;;;0.80;;
19032;SDS011;9649;51.042;13.804;2023-04-24T14:24:40;1.58;;;0.70;;
19032;SDS011;9649;51.042;13.804;2023-04-24T14:29:43;1.85;;;1.33;;
19032;SDS011;9649;51.042;13.804;2023-04-24T14:34:48;1.65;;;0.80;;
19032;SDS011;9649;51.042;13.804;2023-04-24T14:39:52;1.67;;;0.77;;
19032;SDS011;9649;51.042;13.804;2023-04-24T14:45:14;0.75;;;0.70;;
19032;SDS011;9649;51.042;13.804;2023-04-24T14:50:17;2.70;;;0.77;;
19032;SDS011;9649;51.042;13.804;2023-04-24T14:55:25;2.92;;;0.80;;
19032;SDS011;9649;51.042;13.804;2023-04-24T15:00:28;0.80;;;0.80;;
19032;SDS011;9649;51.042;13.804;2023-04-24T15:05:31;3.13;;;0.88;;
19032;SDS011;9649;51.042;13.804;2023-04-24T15:10:36;1.73;;;0.90;;
19032;SDS011;9649;51.042;13.804;2023-04-24T15:15:39;1.17;;;0.80;;
19032;SDS011;9649;51.042;13.804;2023-04-24T15:20:42;3.83;;;0.82;;
19032;SDS011;9649;51.042;13.804;2023-04-24T15:25:46;0.80;;;0.80;;
19032;SDS011;9649;51.042;13.804;2023-04-24T15:30:49;2.60;;;0.80;;
19032;SDS011;9649;51.042;13.804;2023-04-24T15:35:51;3.15;;;0.82;;
19032;SDS011;9649;51.042;13.804;2023-04-24T15:40:56;1.38;;;0.77;;
19032;SDS011;9649;51.042;13.804;2023-04-24T15:45:58;4.53;;;1.02;;
19032;SDS011;9649;51.042;13.804;2023-04-24T15:51:01;3.72;;;0.90;;
19032;SDS011;9649;51.042;13.804;2023-04-24T15:56:05;4.50;;;0.93;;
19032;SDS011;9649;51.042;13.804;2023-04-24T16:01:08;0.75;;;0.75;;
19032;SDS011;9649;51.042;13.804;2023-04-24T16:06:13;4.53;;;1.10;;
19032;SDS011;9649;51.042;13.804;2023-04-24T16:11:17;5.90;;;1.02;;
19032;SDS011;9649;51.042;13.804;2023-04-24T16:16:20;1.13;;;0.98;;
19032;SDS011;9649;51.042;13.804;2023-04-24T16:21:24;2.35;;;1.13;;
19032;SDS011;9649;51.042;13.804;2023-04-24T16:26:30;1.00;;;0.90;;
19032;SDS011;9649;51.042;13.804;2023-04-24T16:31:33;1.73;;;1.20;;
19032;SDS011;9649;51.042;13.804;2023-04-24T16:36:36;1.00;;;0.73;;
19032;SDS011;9649;51.042;13.804;2023-04-24T16:41:40;3.00;;;0.82;;
19032;SDS011;9649;51.042;13.804;2023-04-24T16:46:43;1.35;;;0.80;;
19032;SDS011;9649;51.042;13.804;2023-04-24T16:51:46;1.80;;;0.75;;
19032;SDS011;9649;51.042;13.804;2023-04-24T16:56:51;1.58;;;0.73;;
19032;SDS011;9649;51.042;13.804;2023-04-24T17:01:54;2.08;;;0.65;;
19032;SDS011;9649;51.042;13.804;2023-04-24T17:06:57;3.35;;;0.68;;
19032;SDS011;9649;51.042;13.804;2023-04-24T17:12:01;0.82;;;0.68;;
19032;SDS011;9649;51.042;13.804;2023-04-24T17:17:04;1.55;;;0.95;;
19032;SDS011;9649;51.042;13.804;2023-04-24T17:22:07;0.98;;;0.60;;
19032;SDS011;9649;51.042;13.804;2023-04-24T17:27:11;1.15;;;0.70;;
19032;SDS011;9649;51.042;13.804;2023-04-24T17:32:15;1.17;;;0.90;;
19032;SDS011;9649;51.042;13.804;2023-04-24T17:37:18;1.92;;;0.93;;
19032;SDS011;9649;51.042;13.804;2023-04-24T17:42:24;0.80;;;0.80;;
19032;SDS011;9649;51.042;13.804;2023-04-24T17:47:27;2.75;;;0.80;;
19032;SDS011;9649;51.042;13.804;2023-04-24T17:52:30;3.95;;;0.70;;
19032;SDS011;9649;51.042;13.804;2023-04-24T17:57:35;1.38;;;0.68;;
19032;SDS011;9649;51.042;13.804;2023-04-24T18:02:38;1.05;;;0.60;;
19032;SDS011;9649;51.042;13.804;2023-04-24T18:07:41;2.42;;;0.60;;
19032;SDS011;9649;51.042;13.804;2023-04-24T18:12:45;2.63;;;0.63;;
19032;SDS011;9649;51.042;13.804;2023-04-24T18:17:48;1.55;;;0.50;;
19032;SDS011;9649;51.042;13.804;2023-04-24T18:22:51;5.15;;;0.85;;
19032;SDS011;9649;51.042;13.804;2023-04-24T18:27:55;0.77;;;0.40;;
19032;SDS011;9649;51.042;13.804;2023-04-24T18:32:57;1.95;;;0.55;;
19032;SDS011;9649;51.042;13.804;2023-04-24T18:38:00;3.10;;;0.60;;
19032;SDS011;9649;51.042;13.804;2023-04-24T18:43:04;2.22;;;0.40;;
19032;SDS011;9649;51.042;13.804;2023-04-24T18:48:07;4.30;;;0.90;;
19032;SDS011;9649;51.042;13.804;2023-04-24T18:53:10;5.30;;;0.73;;
19032;SDS011;9649;51.042;13.804;2023-04-24T18:58:16;1.00;;;0.50;;
19032;SDS011;9649;51.042;13.804;2023-04-24T19:03:19;2.53;;;0.50;;
19032;SDS011;9649;51.042;13.804;2023-04-24T19:08:22;1.00;;;0.55;;
19032;SDS011;9649;51.042;13.804;2023-04-24T19:13:26;0.95;;;0.57;;
19032;SDS011;9649;51.042;13.804;2023-04-24T19:18:29;0.70;;;0.60;;
19032;SDS011;9649;51.042;13.804;2023-04-24T19:23:31;0.60;;;0.50;;
19032;SDS011;9649;51.042;13.804;2023-04-24T19:28:38;1.65;;;0.80;;
19032;SDS011;9649;51.042;13.804;2023-04-24T19:33:40;0.47;;;0.47;;
19032;SDS011;9649;51.042;13.804;2023-04-24T19:38:43;2.50;;;0.80;;
19032;SDS011;9649;51.042;13.804;2023-04-24T19:43:47;1.63;;;0.77;;
19032;SDS011;9649;51.042;13.804;2023-04-24T19:48:50;1.48;;;0.75;;
19032;SDS011;9649;51.042;13.804;2023-04-24T19:53:53;0.80;;;0.80;;
19032;SDS011;9649;51.042;13.804;2023-04-24T19:58:57;1.15;;;0.70;;
19032;SDS011;9649;51.042;13.804;2023-04-24T20:04:00;1.80;;;0.80;;
19032;SDS011;9649;51.042;13.804;2023-04-24T20:09:03;0.68;;;0.68;;
19032;SDS011;9649;51.042;13.804;2023-04-24T20:14:08;1.48;;;0.70;;
19032;SDS011;9649;51.042;13.804;2023-04-24T20:19:10;1.15;;;1.00;;
19032;SDS011;9649;51.042;13.804;2023-04-24T20:24:13;1.53;;;0.90;;
19032;SDS011;9649;51.042;13.804;2023-04-24T20:29:17;1.13;;;1.00;;
19032;SDS011;9649;51.042;13.804;2023-04-24T20:34:20;1.52;;;1.17;;
19032;SDS011;9649;51.042;13.804;2023-04-24T20:39:23;1.33;;;1.10;;
19032;SDS011;9649;51.042;13.804;2023-04-24T20:44:28;2.38;;;1.20;;
19032;SDS011;9649;51.042;13.804;2023-04-24T20:49:30;1.52;;;1.35;;
19032;SDS011;9649;51.042;13.804;2023-04-24T20:54:33;2.13;;;1.80;;
19032;SDS011;9649;51.042;13.804;2023-04-24T20:59:37;2.23;;;1.60;;
19032;SDS011;9649;51.042;13.804;2023-04-24T21:04:40;3.42;;;2.10;;
19032;SDS011;9649;51.042;13.804;2023-04-24T21:09:42;3.33;;;1.70;;
19032;SDS011;9649;51.042;13.804;2023-04-24T21:14:46;4.00;;;1.63;;
19032;SDS011;9649;51.042;13.804;2023-04-24T21:19:51;4.95;;;1.73;;
19032;SDS011;9649;51.042;13.804;2023-04-24T21:24:56;4.43;;;1.60;;
19032;SDS011;9649;51.042;13.804;2023-04-24T21:30:00;2.70;;;1.90;;
19032;SDS011;9649;51.042;13.804;2023-04-24T21:35:03;2.23;;;1.60;;
19032;SDS011;9649;51.042;13.804;2023-04-24T21:40:07;2.47;;;1.73;;
19032;SDS011;9649;51.042;13.804;2023-04-24T21:45:13;5.38;;;2.00;;
19032;SDS011;9649;51.042;13.804;2023-04-24T21:50:15;4.17;;;1.90;;
19032;SDS011;9649;51.042;13.804;2023-04-24T21:55:18;3.77;;;1.83;;
19032;SDS011;9649;51.042;13.804;2023-04-24T22:00:23;3.15;;;2.25;;
19032;SDS011;9649;51.042;13.804;2023-04-24T22:05:26;2.20;;;1.90;;
19032;SDS011;9649;51.042;13.804;2023-04-24T22:10:30;2.70;;;1.80;;
19032;SDS011;9649;51.042;13.804;2023-04-24T22:15:34;2.53;;;1.88;;
19032;SDS011;9649;51.042;13.804;2023-04-24T22:20:37;3.20;;;2.00;;
19032;SDS011;9649;51.042;13.804;2023-04-24T22:25:40;3.10;;;2.03;;
19032;SDS011;9649;51.042;13.804;2023-04-24T22:30:44;3.67;;;1.60;;
19032;SDS011;9649;51.042;13.804;2023-04-24T22:35:46;5.63;;;2.35;;
19032;SDS011;9649;51.042;13.804;2023-04-24T22:40:49;3.40;;;2.17;;
19032;SDS011;9649;51.042;13.804;2023-04-24T22:45:53;2.57;;;2.07;;
19032;SDS011;9649;51.042;13.804;2023-04-24T22:50:56;2.60;;;2.00;;
19032;SDS011;9649;51.042;13.804;2023-04-24T22:55:59;4.20;;;2.00;;
19032;SDS011;9649;51.042;13.804;2023-04-24T23:01:03;2.57;;;1.97;;
19032;SDS011;9649;51.042;13.804;2023-04-24T23:06:06;2.93;;;1.77;;
19032;SDS011;9649;51.042;13.804;2023-04-24T23:11:08;4.80;;;2.33;;
19032;SDS011;9649;51.042;13.804;2023-04-24T23:16:12;7.17;;;2.00;;
19032;SDS011;9649;51.042;13.804;2023-04-24T23:21:16;2.47;;;1.80;;
19032;SDS011;9649;51.042;13.804;2023-04-24T23:26:18;2.27;;;1.90;;
19032;SDS011;9649;51.042;13.804;2023-04-24T23:31:22;5.30;;;2.03;;
19032;SDS011;9649;51.042;13.804;2023-04-24T23:36:25;3.67;;;2.00;;
19032;SDS011;9649;51.042;13.804;2023-04-24T23:41:28;3.70;;;2.17;;
19032;SDS011;9649;51.042;13.804;2023-04-24T23:46:32;4.47;;;2.30;;
19032;SDS011;9649;51.042;13.804;2023-04-24T23:51:35;3.27;;;2.30;;
19032;SDS011;9649;51.042;13.804;2023-04-24T23:56:38;2.97;;;2.40;;
